Time;durP1;ratioP1;P1;durP2;ratioP2;P2;SDS_P1;SDS_P2;PMS_P1;PMS_P2;Temp;Humidity;BMP_temperature;BMP_pressure;BME280_temperature;BME280_humidity;BME280_pressure;Samples;Min_cycle;Max_cycle;Signal;HPM_P1;HPM_P2
2020/12/23 00:00:00;;;;;;;0.30;0.30;;;;;;;10.81;79.04;95718.53;5052064;28;20192;-77
2020/12/23 00:02:26;;;;;;;1.03;0.43;;;;;;;10.81;78.89;95721.13;5063873;28;20184;-75
2020/12/23 00:04:51;;;;;;;1.07;0.60;;;;;;;10.78;78.86;95708.44;5046456;28;20683;-76
2020/12/23 00:07:17;;;;;;;0.57;0.57;;;;;;;10.84;78.92;95705.25;5047681;28;20186;-76
2020/12/23 00:09:43;;;;;;;0.60;0.53;;;;;;;10.93;78.27;95709.56;5053384;28;20177;-76
2020/12/23 00:12:08;;;;;;;0.87;0.50;;;;;;;10.91;78.76;95702.88;5053805;28;20204;-76
2020/12/23 00:14:34;;;;;;;1.23;0.50;;;;;;;10.93;78.15;95703.56;5053339;28;20204;-76
2020/12/23 00:16:59;;;;;;;0.50;0.50;;;;;;;10.92;78.34;95705.34;5070508;28;20188;-76
2020/12/23 00:19:24;;;;;;;0.80;0.60;;;;;;;10.94;78.41;95703.41;5071549;28;20215;-76
2020/12/23 00:21:49;;;;;;;1.63;0.60;;;;;;;11.02;78.03;95708.69;5053890;28;20188;-76
2020/12/23 00:24:15;;;;;;;0.53;0.50;;;;;;;10.98;78.45;95703.94;5071434;28;20665;-76
2020/12/23 00:26:43;;;;;;;1.17;0.50;;;;;;;11.00;78.20;95684.63;5063820;28;20652;-76
2020/12/23 00:29:09;;;;;;;0.63;0.50;;;;;;;11.01;77.99;95704.47;5052444;28;20201;-76
2020/12/23 00:31:34;;;;;;;3.03;0.83;;;;;;;11.01;78.11;95707.06;5053173;28;20200;-76
2020/12/23 00:33:59;;;;;;;2.20;0.87;;;;;;;11.04;77.72;95704.19;5053424;28;20231;-77
2020/12/23 00:36:24;;;;;;;1.63;1.20;;;;;;;11.04;77.55;95700.75;5051156;28;20186;-76
2020/12/23 00:38:50;;;;;;;0.80;0.80;;;;;;;11.04;77.81;95708.53;5053321;28;20556;-76
2020/12/23 00:41:15;;;;;;;1.33;0.70;;;;;;;11.02;77.68;95711.28;5071501;28;20621;-76
2020/12/23 00:43:40;;;;;;;1.90;0.60;;;;;;;11.16;76.81;95709.97;5036873;28;20216;-76
2020/12/23 00:46:10;;;;;;;2.10;0.90;;;;;;;11.06;77.27;95702.25;5068396;28;20681;-76
2020/12/23 00:48:35;;;;;;;0.70;0.70;;;;;;;11.06;77.05;95693.63;5062885;28;20796;-76
2020/12/23 00:51:00;;;;;;;1.53;0.70;;;;;;;11.02;77.45;95705.28;5053455;28;20239;-76
2020/12/23 00:53:26;;;;;;;0.67;0.60;;;;;;;10.99;77.68;95703.78;5053159;28;20224;-76
2020/12/23 00:55:51;;;;;;;0.60;0.60;;;;;;;11.01;77.95;95701.84;5063411;28;20209;-76
2020/12/23 00:58:16;;;;;;;0.60;0.60;;;;;;;10.99;78.16;95709.00;5053396;28;20596;-76
2020/12/23 01:00:42;;;;;;;1.47;0.60;;;;;;;10.91;78.27;95706.31;5053367;28;20177;-76
2020/12/23 01:03:07;;;;;;;0.63;0.50;;;;;;;11.02;77.80;95713.88;5053484;28;20173;-76
2020/12/23 01:05:32;;;;;;;1.80;0.70;;;;;;;11.06;77.88;95693.63;5051117;28;20255;-76
2020/12/23 01:07:57;;;;;;;0.70;0.60;;;;;;;11.04;77.93;95704.19;5071260;28;20181;-76
2020/12/23 01:10:23;;;;;;;0.70;0.50;;;;;;;11.00;77.89;95702.00;5076939;28;20173;-76
2020/12/23 01:12:48;;;;;;;0.47;0.40;;;;;;;11.03;77.54;95705.13;5072705;28;20181;-76
2020/12/23 01:15:13;;;;;;;1.53;0.60;;;;;;;11.07;77.40;95703.88;5053209;28;20723;-76
2020/12/23 01:17:39;;;;;;;0.80;0.60;;;;;;;11.03;77.59;95694.72;5053552;28;20289;-76
2020/12/23 01:20:04;;;;;;;0.50;0.50;;;;;;;10.99;77.79;95695.19;5053102;28;20227;-76
2020/12/23 01:22:29;;;;;;;0.70;0.60;;;;;;;10.96;77.59;95693.69;5068622;28;20181;-76
2020/12/23 01:24:55;;;;;;;0.70;0.60;;;;;;;11.00;77.67;95699.41;5070940;28;20276;-76
2020/12/23 01:27:20;;;;;;;0.40;0.40;;;;;;;10.97;77.68;95694.53;5071095;28;20190;-76
2020/12/23 01:29:45;;;;;;;0.60;0.60;;;;;;;10.89;78.04;95700.44;5052878;28;20196;-76
2020/12/23 01:32:11;;;;;;;0.60;0.60;;;;;;;10.95;78.05;95702.44;5070968;28;20205;-76
2020/12/23 01:34:36;;;;;;;0.60;0.60;;;;;;;10.94;78.23;95702.59;5035299;28;20358;-76
2020/12/23 01:37:01;;;;;;;0.60;0.60;;;;;;;10.91;77.69;95701.09;5052955;28;20181;-76
2020/12/23 01:39:27;;;;;;;0.50;0.50;;;;;;;10.93;77.64;95703.56;5070707;28;20239;-76
2020/12/23 01:41:58;;;;;;;1.07;0.60;;;;;;;10.97;77.22;95694.53;5052965;28;20666;-76
2020/12/23 01:44:24;;;;;;;0.60;0.50;;;;;;;11.02;77.16;95694.88;5039209;28;20347;-76
2020/12/23 01:46:50;;;;;;;0.93;0.60;;;;;;;10.98;77.09;95704.75;5056645;28;20319;-77
2020/12/23 01:49:16;;;;;;;1.13;0.63;;;;;;;10.95;77.26;95702.44;5072910;28;20178;-77
2020/12/23 01:51:41;;;;;;;1.50;0.70;;;;;;;10.94;77.83;95703.41;5073127;28;20203;-76
2020/12/23 01:54:06;;;;;;;1.07;0.50;;;;;;;10.90;77.98;95699.47;5039430;28;20177;-76
2020/12/23 01:56:32;;;;;;;1.10;0.77;;;;;;;10.89;78.16;95692.66;5054128;28;20181;-76
2020/12/23 01:58:57;;;;;;;0.60;0.60;;;;;;;10.81;78.70;95689.13;5074133;28;20181;-76
2020/12/23 02:01:25;;;;;;;1.93;0.60;;;;;;;10.71;78.91;95694.38;5039621;28;20223;-76
2020/12/23 02:03:50;;;;;;;1.70;0.80;;;;;;;10.75;78.94;95691.34;5056370;28;20260;-76
2020/12/23 02:06:16;;;;;;;0.47;0.47;;;;;;;10.67;79.36;95700.81;5051149;28;20293;-77
2020/12/23 02:08:42;;;;;;;0.70;0.67;;;;;;;10.68;79.56;95689.47;5073784;28;20187;-76
2020/12/23 02:11:12;;;;;;;0.50;0.50;;;;;;;10.64;79.79;95698.53;5073942;28;20201;-76
2020/12/23 02:13:42;;;;;;;1.03;0.80;;;;;;;10.69;79.13;95691.09;5056111;28;20651;-76
2020/12/23 02:16:08;;;;;;;0.70;0.70;;;;;;;10.66;79.74;95691.41;5053031;28;20201;-76
2020/12/23 02:18:34;;;;;;;2.30;0.73;;;;;;;10.67;80.05;95674.84;5072257;28;20208;-76
2020/12/23 02:21:01;;;;;;;0.70;0.57;;;;;;;10.61;80.13;95693.63;5055980;28;20169;-76
2020/12/23 02:23:26;;;;;;;0.60;0.60;;;;;;;10.47;80.38;95682.75;5056046;28;20231;-76
2020/12/23 02:25:51;;;;;;;0.57;0.57;;;;;;;10.47;81.20;95681.91;5055778;28;20201;-76
2020/12/23 02:28:17;;;;;;;0.73;0.63;;;;;;;10.43;81.35;95684.00;5053638;28;20216;-77
2020/12/23 02:30:42;;;;;;;0.80;0.60;;;;;;;10.36;81.75;95685.53;5073239;28;20208;-76
2020/12/23 02:33:07;;;;;;;1.13;0.50;;;;;;;10.41;81.64;95680.69;5055810;28;20204;-76
2020/12/23 02:35:32;;;;;;;1.13;0.60;;;;;;;10.33;81.78;95680.59;5055624;28;20205;-76
2020/12/23 02:37:58;;;;;;;0.70;0.70;;;;;;;10.27;82.17;95670.00;5067611;28;20193;-76
2020/12/23 02:40:23;;;;;;;0.80;0.80;;;;;;;10.25;82.19;95664.94;5053635;28;20188;-77
2020/12/23 02:42:48;;;;;;;0.60;0.60;;;;;;;10.21;82.75;95661.78;5073470;28;20181;-76
2020/12/23 02:45:14;;;;;;;0.90;0.70;;;;;;;10.17;82.52;95670.81;5073272;28;20201;-76
2020/12/23 02:47:39;;;;;;;0.70;0.70;;;;;;;10.14;82.60;95659.88;5055601;28;20169;-76
2020/12/23 02:50:05;;;;;;;1.50;0.60;;;;;;;10.15;82.79;95662.31;5053138;28;20189;-76
2020/12/23 02:52:30;;;;;;;1.10;0.70;;;;;;;10.14;82.42;95652.09;5055246;28;20392;-76
2020/12/23 02:54:55;;;;;;;2.13;0.70;;;;;;;10.13;82.82;95637.50;5054639;28;20672;-76
2020/12/23 02:57:21;;;;;;;1.23;0.70;;;;;;;10.16;82.58;95643.22;5055191;28;20188;-76
2020/12/23 02:59:46;;;;;;;0.83;0.70;;;;;;;10.16;82.46;95655.38;5035425;28;20189;-76
2020/12/23 03:02:43;;;;;;;0.77;0.77;;;;;;;10.23;82.24;95643.47;5038395;28;20172;-76
2020/12/23 03:05:08;;;;;;;0.87;0.77;;;;;;;10.16;82.09;95624.25;5072920;28;20208;-76
2020/12/23 03:07:33;;;;;;;1.53;0.80;;;;;;;10.17;81.96;95631.06;5072933;28;20177;-76
2020/12/23 03:09:59;;;;;;;1.33;0.60;;;;;;;10.18;81.69;95628.31;5066598;28;20881;-76
2020/12/23 03:12:24;;;;;;;0.80;0.77;;;;;;;10.13;82.04;95619.31;5071092;28;20598;-76
2020/12/23 03:14:49;;;;;;;0.60;0.60;;;;;;;10.21;81.49;95629.81;5072851;28;20203;-76
2020/12/23 03:17:15;;;;;;;1.60;0.70;;;;;;;10.23;81.81;95621.91;5072815;28;20235;-76
2020/12/23 03:19:40;;;;;;;0.60;0.60;;;;;;;10.24;81.21;95616.56;5037953;28;20185;-76
2020/12/23 03:22:05;;;;;;;0.50;0.50;;;;;;;10.26;80.84;95617.25;5035529;28;20177;-76
2020/12/23 03:24:31;;;;;;;1.13;0.53;;;;;;;10.28;80.63;95624.91;5054532;28;20611;-76
2020/12/23 03:26:56;;;;;;;0.60;0.60;;;;;;;10.29;81.18;95605.78;5072657;28;20184;-76
2020/12/23 03:29:22;;;;;;;0.60;0.60;;;;;;;10.20;81.14;95602.22;5072172;28;20200;-76
2020/12/23 03:31:47;;;;;;;0.90;0.70;;;;;;;10.23;80.84;95599.38;5067469;28;20211;-76
2020/12/23 03:34:12;;;;;;;0.60;0.60;;;;;;;10.21;81.18;95590.88;5054241;28;20211;-76
2020/12/23 03:36:37;;;;;;;0.60;0.60;;;;;;;10.27;80.59;95597.31;5054648;28;20185;-76
2020/12/23 03:39:04;;;;;;;0.60;0.60;;;;;;;10.22;80.77;95592.53;5071922;28;20173;-77
2020/12/23 03:41:29;;;;;;;0.90;0.60;;;;;;;10.22;80.72;95587.34;5052004;28;20299;-75
2020/12/23 03:43:55;;;;;;;0.90;0.63;;;;;;;10.19;80.87;95587.63;5049322;28;20181;-76
2020/12/23 03:46:20;;;;;;;1.83;0.80;;;;;;;10.21;80.63;95599.47;5054334;28;20213;-76
2020/12/23 03:48:45;;;;;;;0.50;0.50;;;;;;;10.30;80.32;95603.03;5071876;28;20177;-77
2020/12/23 03:51:11;;;;;;;2.23;0.90;;;;;;;10.36;80.01;95586.88;5037659;28;20201;-76
2020/12/23 03:53:36;;;;;;;0.77;0.57;;;;;;;10.33;80.31;95591.53;5068937;28;20746;-76
2020/12/23 03:56:01;;;;;;;0.60;0.53;;;;;;;10.41;79.62;95589.03;5071950;28;20276;-76
2020/12/23 03:58:27;;;;;;;0.80;0.70;;;;;;;10.38;79.84;95594.53;5037600;28;20197;-76
2020/12/23 04:00:52;;;;;;;0.57;0.57;;;;;;;10.31;80.15;95589.09;5053945;28;20178;-76
2020/12/23 04:03:17;;;;;;;0.70;0.57;;;;;;;10.29;80.57;95595.38;5052499;28;20247;-76
2020/12/23 04:05:43;;;;;;;0.90;0.60;;;;;;;10.20;80.78;95592.66;5052974;28;20224;-76
2020/12/23 04:08:08;;;;;;;1.23;0.50;;;;;;;10.23;80.57;95593.34;5072067;28;20231;-77
2020/12/23 04:10:33;;;;;;;1.23;0.70;;;;;;;10.24;80.63;95597.59;5053732;28;20239;-77
2020/12/23 04:12:59;;;;;;;1.20;0.50;;;;;;;10.24;80.62;95595.00;5054026;28;20173;-76
2020/12/23 04:15:24;;;;;;;0.73;0.63;;;;;;;10.25;80.60;95583.66;5045260;28;20639;-77
2020/12/23 04:17:54;;;;;;;0.83;0.63;;;;;;;10.26;80.85;95590.50;5053935;28;20630;-76
2020/12/23 04:20:19;;;;;;;0.60;0.50;;;;;;;10.25;80.51;95576.69;5053428;28;20180;-76
2020/12/23 04:22:45;;;;;;;0.70;0.70;;;;;;;10.34;80.46;95580.22;5071757;28;20177;-76
2020/12/23 04:25:10;;;;;;;0.60;0.50;;;;;;;10.25;80.96;95574.09;5051542;28;20688;-76
2020/12/23 04:27:36;;;;;;;1.53;0.50;;;;;;;10.23;81.09;95577.78;5071705;28;20204;-76
2020/12/23 04:30:06;;;;;;;0.70;0.70;;;;;;;10.19;81.16;95578.06;5036817;28;20192;-76
2020/12/23 04:32:32;;;;;;;0.60;0.57;;;;;;;10.20;81.45;95571.09;5053737;28;20231;-76
2020/12/23 04:35:01;;;;;;;0.57;0.50;;;;;;;10.18;81.43;95560.84;5050402;28;20681;-76
2020/12/23 04:37:27;;;;;;;0.87;0.70;;;;;;;10.14;81.77;95543.94;5070329;28;20223;-76
2020/12/23 04:39:52;;;;;;;0.83;0.67;;;;;;;10.15;81.58;95542.97;5053647;28;20181;-76
2020/12/23 04:42:17;;;;;;;1.07;0.53;;;;;;;10.17;81.61;95543.66;5071629;28;20189;-76
2020/12/23 04:44:43;;;;;;;0.63;0.47;;;;;;;10.16;81.49;95544.63;5071519;28;20672;-75
2020/12/23 04:47:08;;;;;;;0.60;0.47;;;;;;;10.15;81.80;95539.56;5064721;28;20272;-76
2020/12/23 04:49:36;;;;;;;1.60;0.40;;;;;;;10.15;81.68;95547.34;5036469;28;20209;-76
2020/12/23 04:52:04;;;;;;;0.77;0.60;;;;;;;10.19;81.43;95543.50;5053560;28;20220;-76
2020/12/23 04:54:30;;;;;;;0.60;0.60;;;;;;;10.19;81.31;95539.13;5053146;28;20197;-76
2020/12/23 04:56:55;;;;;;;1.37;0.60;;;;;;;10.19;81.12;95539.13;5048179;28;20186;-76
2020/12/23 04:59:20;;;;;;;2.77;1.20;;;;;;;10.19;81.39;95540.91;5051017;28;20189;-76
2020/12/23 05:01:45;;;;;;;0.50;0.50;;;;;;;10.12;81.14;95538.06;5036703;28;20205;-77
2020/12/23 05:04:11;;;;;;;1.17;0.70;;;;;;;10.09;81.66;95546.16;5053502;28;20181;-76
2020/12/23 05:06:37;;;;;;;1.07;0.97;;;;;;;10.15;81.43;95544.75;5071519;28;20644;-76
2020/12/23 05:09:06;;;;;;;1.30;1.20;;;;;;;10.09;81.35;95542.75;5030171;28;20190;-77
2020/12/23 05:11:32;;;;;;;1.37;0.90;;;;;;;10.21;80.51;95549.34;5069463;28;20201;-76
2020/12/23 05:14:02;;;;;;;0.73;0.70;;;;;;;10.25;80.16;95542.97;5053173;28;20173;-77
2020/12/23 05:16:28;;;;;;;0.70;0.70;;;;;;;10.27;80.29;95543.63;5054546;28;20529;-77
2020/12/23 05:18:58;;;;;;;1.87;0.80;;;;;;;10.29;80.31;95543.47;5037730;28;20188;-76
2020/12/23 05:21:24;;;;;;;1.37;0.60;;;;;;;10.21;80.31;95539.78;5057117;28;20180;-76
2020/12/23 05:23:49;;;;;;;0.73;0.63;;;;;;;10.24;80.40;95530.09;5057142;28;20268;-76
2020/12/23 05:26:15;;;;;;;0.53;0.53;;;;;;;10.23;80.07;95537.09;5056895;28;20236;-76
2020/12/23 05:28:42;;;;;;;1.77;0.67;;;;;;;10.16;80.31;95534.25;5071460;28;20220;-76
2020/12/23 05:31:09;;;;;;;0.60;0.60;;;;;;;10.15;80.28;95527.38;5056933;28;20232;-76
2020/12/23 05:33:35;;;;;;;0.60;0.60;;;;;;;10.11;80.47;95526.06;5039967;28;20599;-77
2020/12/23 05:36:05;;;;;;;0.50;0.50;;;;;;;10.23;79.71;95521.50;5056786;28;20212;-77
2020/12/23 05:38:31;;;;;;;0.50;0.50;;;;;;;10.23;79.64;95526.69;5056644;28;20704;-76
2020/12/23 05:40:58;;;;;;;0.50;0.50;;;;;;;10.15;79.84;95523.97;5054568;28;20209;-76
2020/12/23 05:43:25;;;;;;;1.00;0.70;;;;;;;10.13;79.81;95515.53;5056547;28;20231;-76
2020/12/23 05:45:52;;;;;;;0.97;0.53;;;;;;;10.08;79.84;95522.94;5039961;28;20661;-76
2020/12/23 05:48:18;;;;;;;0.47;0.47;;;;;;;10.04;80.09;95508.63;5056604;28;20181;-76
2020/12/23 05:50:44;;;;;;;1.80;0.67;;;;;;;10.00;80.52;95518.47;5066627;28;20197;-77
2020/12/23 05:53:12;;;;;;;0.60;0.60;;;;;;;9.99;80.30;95521.22;5055860;28;20182;-76
2020/12/23 05:55:43;;;;;;;0.67;0.67;;;;;;;9.99;80.58;95513.44;5056532;28;20204;-76
2020/12/23 05:58:08;;;;;;;0.93;0.70;;;;;;;9.96;80.84;95508.53;5056186;28;20655;-76
2020/12/23 06:00:34;;;;;;;0.60;0.60;;;;;;;9.92;81.06;95506.22;5038313;28;20181;-77
2020/12/23 06:03:20;;;;;;;1.37;0.70;;;;;;;9.91;81.05;95504.59;5056357;28;20182;-76
2020/12/23 06:05:56;;;;;;;0.60;0.60;;;;;;;9.96;80.65;95508.53;5056374;28;20568;-76
2020/12/23 06:08:28;;;;;;;0.70;0.63;;;;;;;9.89;80.96;95506.53;5074053;28;20176;-76
2020/12/23 06:11:08;;;;;;;0.77;0.70;;;;;;;9.83;81.35;95504.50;5037131;28;20616;-76
2020/12/23 06:13:41;;;;;;;1.40;0.50;;;;;;;9.93;81.07;95517.41;5055744;28;20189;-76
2020/12/23 06:16:07;;;;;;;1.70;0.97;;;;;;;9.90;81.24;95510.75;5053864;28;20201;-76
2020/12/23 06:18:36;;;;;;;0.60;0.60;;;;;;;9.89;81.32;95516.91;5055768;28;20573;-77
2020/12/23 06:21:06;;;;;;;1.43;0.80;;;;;;;9.86;81.37;95506.78;5055800;28;20184;-76
2020/12/23 06:23:31;;;;;;;1.70;0.87;;;;;;;9.85;81.64;95509.53;5038250;28;20181;-76
2020/12/23 06:26:00;;;;;;;1.90;0.60;;;;;;;9.76;82.23;95500.84;5055808;28;20615;-75
2020/12/23 06:28:26;;;;;;;0.97;0.70;;;;;;;9.73;82.23;95495.13;5071931;28;20659;-76
2020/12/23 06:30:51;;;;;;;0.70;0.70;;;;;;;9.69;82.77;95496.38;5055804;28;20201;-76
2020/12/23 06:33:18;;;;;;;1.87;0.60;;;;;;;9.64;82.94;95496.81;5051323;28;20189;-76
2020/12/23 06:35:43;;;;;;;1.33;0.70;;;;;;;9.61;83.20;95494.50;5055581;28;20216;-76
2020/12/23 06:38:19;;;;;;;1.53;0.90;;;;;;;9.60;83.54;95488.47;5055783;28;20577;-77
2020/12/23 06:40:58;;;;;;;0.83;0.63;;;;;;;9.58;83.53;95482.63;5055663;28;20609;-76
2020/12/23 06:43:52;;;;;;;0.70;0.63;;;;;;;9.64;83.00;95491.63;5055097;28;20193;-76
2020/12/23 06:46:18;;;;;;;0.77;0.70;;;;;;;9.57;83.63;95496.56;5055486;28;20204;-75
2020/12/23 06:48:43;;;;;;;1.00;1.00;;;;;;;9.56;83.71;95496.72;5055402;28;20177;-76
2020/12/23 06:51:08;;;;;;;1.10;1.00;;;;;;;9.56;83.76;95486.34;5073295;28;20226;-76
2020/12/23 06:53:35;;;;;;;0.83;0.80;;;;;;;9.54;83.80;95490.81;5053173;28;20271;-75
2020/12/23 06:56:00;;;;;;;1.13;0.80;;;;;;;9.50;84.27;95484.31;5055150;28;20196;-76
2020/12/23 06:58:39;;;;;;;1.33;0.80;;;;;;;9.42;84.52;95481.59;5054978;28;20322;-76
2020/12/23 07:01:23;;;;;;;0.90;0.90;;;;;;;9.43;84.49;95496.19;5054102;28;20170;-76
2020/12/23 07:03:48;;;;;;;1.63;0.70;;;;;;;9.40;84.71;95486.13;5073125;28;20253;-75
2020/12/23 07:06:33;;;;;;;1.37;1.00;;;;;;;9.40;84.41;95486.13;5052546;28;20334;-76
2020/12/23 07:09:04;;;;;;;0.80;0.80;;;;;;;9.39;84.29;95492.28;5054844;28;20256;-75
2020/12/23 07:11:33;;;;;;;0.80;0.80;;;;;;;9.36;84.40;95480.38;5055239;28;20584;-75
2020/12/23 07:13:58;;;;;;;0.90;0.80;;;;;;;9.35;84.27;95487.34;5055647;28;20189;-76
2020/12/23 07:16:25;;;;;;;1.03;0.93;;;;;;;9.37;84.09;95484.63;5053037;28;20189;-75
2020/12/23 07:18:51;;;;;;;0.77;0.70;;;;;;;9.34;84.15;95488.31;5037828;28;20185;-77
2020/12/23 07:21:25;;;;;;;0.80;0.80;;;;;;;9.31;84.27;95485.19;5062566;28;20260;-79
2020/12/23 07:23:53;;;;;;;1.60;0.90;;;;;;;9.34;84.19;95490.09;5081605;28;20223;-76
2020/12/23 07:26:21;;;;;;;1.50;1.00;;;;;;;9.28;84.12;95491.47;5048451;28;20705;-76
2020/12/23 07:28:46;;;;;;;1.20;1.10;;;;;;;9.31;83.82;95492.97;5070768;28;20188;-76
2020/12/23 07:31:11;;;;;;;1.07;0.80;;;;;;;9.33;83.87;95494.44;5037941;28;20251;-78
2020/12/23 07:33:38;;;;;;;0.77;0.77;;;;;;;9.27;83.86;95489.81;5054646;28;20258;-78
2020/12/23 07:36:03;;;;;;;1.00;0.77;;;;;;;9.22;84.14;95489.44;5068855;28;20193;-75
2020/12/23 07:38:32;;;;;;;0.73;0.73;;;;;;;9.24;84.05;95492.72;5063575;28;20188;-74
2020/12/23 07:40:58;;;;;;;0.70;0.70;;;;;;;9.27;83.41;95492.41;5054804;28;20213;-76
2020/12/23 07:43:23;;;;;;;1.23;0.77;;;;;;;9.51;82.48;95485.94;5053591;28;20650;-76
2020/12/23 07:45:50;;;;;;;2.20;0.80;;;;;;;9.54;82.14;95496.00;5054161;28;20292;-76
2020/12/23 07:48:17;;;;;;;1.23;0.90;;;;;;;9.58;82.15;95493.00;5067705;28;20209;-76
2020/12/23 07:50:44;;;;;;;0.80;0.80;;;;;;;9.66;81.48;95481.94;5037058;28;20219;-76
2020/12/23 07:53:21;;;;;;;0.80;0.80;;;;;;;9.63;81.74;95479.63;5070926;28;20251;-76
2020/12/23 07:55:55;;;;;;;0.70;0.70;;;;;;;9.62;82.02;95485.75;5054023;28;20213;-76
2020/12/23 07:58:21;;;;;;;1.00;0.80;;;;;;;9.63;81.38;95480.44;5051971;28;20272;-76
2020/12/23 08:00:46;;;;;;;0.90;0.70;;;;;;;9.70;81.63;95491.03;5071673;28;20319;-76
2020/12/23 08:03:12;;;;;;;2.10;0.80;;;;;;;9.72;81.51;95489.13;5071921;28;20185;-77
2020/12/23 08:05:39;;;;;;;0.90;0.90;;;;;;;9.86;80.54;95487.81;5037255;28;20205;-76
2020/12/23 08:08:06;;;;;;;3.10;0.70;;;;;;;9.85;80.57;95497.38;5051615;28;20188;-76
2020/12/23 08:10:32;;;;;;;0.60;0.60;;;;;;;9.96;79.85;95500.75;5053165;28;20181;-76
2020/12/23 08:12:59;;;;;;;0.93;0.87;;;;;;;9.98;80.15;95491.03;5040607;28;20181;-76
2020/12/23 08:15:25;;;;;;;3.30;0.60;;;;;;;9.98;80.19;95497.03;5033857;28;20309;-76
2020/12/23 08:18:04;;;;;;;0.73;0.73;;;;;;;9.99;80.29;95505.66;5034201;28;20217;-76
2020/12/23 08:20:31;;;;;;;0.60;0.60;;;;;;;9.98;80.10;95504.00;5047852;28;21567;-76
2020/12/23 08:22:58;;;;;;;1.30;0.70;;;;;;;10.08;79.94;95500.41;5068624;28;20219;-76
2020/12/23 08:25:24;;;;;;;1.53;0.80;;;;;;;10.09;79.86;95501.22;5049807;28;20215;-76
2020/12/23 08:27:51;;;;;;;1.10;1.00;;;;;;;10.11;79.79;95494.09;5052613;28;20272;-76
2020/12/23 08:30:21;;;;;;;1.17;1.07;;;;;;;10.15;79.75;95487.66;5046161;28;20562;-76
2020/12/23 08:32:56;;;;;;;1.30;1.20;;;;;;;10.19;79.50;95502.78;5053490;28;20664;-76
2020/12/23 08:35:27;;;;;;;0.80;0.70;;;;;;;10.23;79.21;95498.16;5053683;28;20192;-76
2020/12/23 08:37:53;;;;;;;0.70;0.70;;;;;;;10.26;79.11;95495.28;5053643;28;20177;-76
2020/12/23 08:40:18;;;;;;;0.67;0.60;;;;;;;10.29;78.64;95492.38;5064664;28;20193;-76
2020/12/23 08:42:54;;;;;;;1.00;0.73;;;;;;;10.32;78.70;95502.47;5053455;28;20179;-76
2020/12/23 08:45:25;;;;;;;0.90;0.73;;;;;;;10.35;78.50;95496.19;5053671;28;20251;-76
2020/12/23 08:47:51;;;;;;;1.23;0.70;;;;;;;10.42;78.28;95500.63;5053448;28;20204;-76
2020/12/23 08:50:18;;;;;;;1.27;0.80;;;;;;;10.39;78.37;95498.31;5053461;28;20585;-76
2020/12/23 08:52:51;;;;;;;0.67;0.67;;;;;;;10.48;77.99;95500.03;5037349;28;20204;-76
2020/12/23 08:55:23;;;;;;;0.77;0.60;;;;;;;10.47;77.81;95490.59;5040930;28;20279;-77
2020/12/23 08:57:49;;;;;;;0.60;0.50;;;;;;;10.61;77.52;95496.25;5057542;28;20178;-76
2020/12/23 09:00:21;;;;;;;0.70;0.70;;;;;;;10.65;77.13;95487.19;5055671;28;20738;-76
2020/12/23 09:02:48;;;;;;;2.17;0.80;;;;;;;10.72;76.49;95493.44;5057509;28;20647;-77
2020/12/23 09:05:23;;;;;;;1.77;0.80;;;;;;;10.75;76.96;95493.13;5057445;28;20197;-76
2020/12/23 09:07:48;;;;;;;1.23;0.93;;;;;;;10.76;76.35;95499.94;5074992;28;20185;-76
2020/12/23 09:10:14;;;;;;;0.80;0.80;;;;;;;10.76;76.54;95497.34;5037812;28;20288;-77
2020/12/23 09:12:39;;;;;;;1.70;0.90;;;;;;;10.82;76.34;95488.16;5075004;28;20193;-77
2020/12/23 09:15:14;;;;;;;0.93;0.90;;;;;;;10.85;76.55;95488.66;5040354;28;20703;-77
2020/12/23 09:17:40;;;;;;;1.90;0.80;;;;;;;10.87;76.60;95485.94;5037002;28;20195;-75
2020/12/23 09:20:05;;;;;;;0.70;0.70;;;;;;;10.88;76.08;95480.56;5053751;28;20212;-77
2020/12/23 09:22:38;;;;;;;2.30;1.70;;;;;;;10.92;76.27;95484.50;5037208;28;20184;-78
2020/12/23 09:25:14;;;;;;;1.07;1.07;;;;;;;11.01;75.52;95486.19;5073599;28;20200;-77
2020/12/23 09:27:40;;;;;;;1.07;1.00;;;;;;;11.11;75.31;95493.06;5057308;28;20173;-78
2020/12/23 09:30:06;;;;;;;1.23;0.90;;;;;;;11.18;75.14;95486.31;5056503;28;20234;-78
2020/12/23 09:32:32;;;;;;;1.27;1.00;;;;;;;11.16;75.27;95490.84;5036906;28;20205;-77
2020/12/23 09:35:20;;;;;;;1.43;1.03;;;;;;;11.25;74.72;95484.72;5056707;28;20280;-78
2020/12/23 09:37:47;;;;;;;2.23;0.80;;;;;;;11.29;74.55;95486.03;5073809;28;20604;-77
2020/12/23 09:40:13;;;;;;;4.30;2.10;;;;;;;11.41;74.40;95492.63;5040032;28;20182;-77
2020/12/23 09:42:39;;;;;;;2.73;2.00;;;;;;;11.43;73.95;95485.47;5055023;28;20192;-77
2020/12/23 09:45:06;;;;;;;1.90;1.47;;;;;;;11.31;73.76;95484.13;5056486;28;20197;-78
2020/12/23 09:47:31;;;;;;;3.43;1.60;;;;;;;11.33;73.91;95483.00;5056736;28;20181;-74
2020/12/23 09:49:57;;;;;;;2.37;1.83;;;;;;;11.33;74.33;95482.19;5056551;28;20264;-77
2020/12/23 09:52:22;;;;;;;3.40;2.80;;;;;;;11.33;74.16;95476.97;5064049;28;20237;-77
2020/12/23 09:54:48;;;;;;;4.33;2.87;;;;;;;11.36;74.05;95474.06;5049735;28;20691;-77
2020/12/23 09:57:13;;;;;;;10.23;5.70;;;;;;;11.38;73.94;95466.91;5069264;28;20578;-74
2020/12/23 09:59:38;;;;;;;5.43;3.17;;;;;;;11.32;74.38;95477.94;5055549;28;20257;-77
2020/12/23 10:02:03;;;;;;;4.60;2.23;;;;;;;11.33;74.08;95466.59;5073706;28;20640;-76
2020/12/23 10:04:29;;;;;;;10.50;6.47;;;;;;;11.27;74.72;95461.97;5064982;28;20245;-77
2020/12/23 10:06:54;;;;;;;3.93;2.40;;;;;;;11.25;75.01;95463.94;5039340;28;20173;-76
2020/12/23 10:09:19;;;;;;;4.60;2.27;;;;;;;11.27;75.34;95461.97;5055954;28;20539;-77
2020/12/23 10:11:45;;;;;;;2.13;1.60;;;;;;;11.18;76.07;95457.72;5055202;28;20213;-76
2020/12/23 10:14:10;;;;;;;7.13;4.27;;;;;;;11.18;75.97;95452.50;5071373;28;20188;-76
2020/12/23 10:16:35;;;;;;;3.23;1.90;;;;;;;11.18;76.53;95450.72;5073824;28;20188;-76
2020/12/23 10:19:01;;;;;;;2.87;0.80;;;;;;;11.32;76.30;95447.56;5073758;28;20184;-76
2020/12/23 10:21:27;;;;;;;1.17;1.03;;;;;;;11.27;76.25;95451.59;5056082;28;20721;-76
2020/12/23 10:23:53;;;;;;;9.37;5.23;;;;;;;11.28;76.17;95435.84;5055947;28;20292;-76
2020/12/23 10:26:18;;;;;;;4.67;2.13;;;;;;;11.25;76.86;95437.94;5053701;28;20258;-76
2020/12/23 10:28:44;;;;;;;1.70;0.83;;;;;;;11.24;76.41;95431.94;5055489;28;20197;-77
2020/12/23 10:31:09;;;;;;;8.33;4.47;;;;;;;11.32;75.40;95415.56;5056008;28;20566;-76
2020/12/23 10:33:36;;;;;;;5.57;3.60;;;;;;;11.34;75.65;95421.41;5074323;28;20330;-76
2020/12/23 10:36:02;;;;;;;4.13;2.30;;;;;;;11.39;75.71;95419.13;5053858;28;20740;-76
2020/12/23 10:38:28;;;;;;;8.17;4.30;;;;;;;11.44;74.73;95416.91;5057922;28;20637;-76
2020/12/23 10:40:57;;;;;;;2.43;1.30;;;;;;;11.55;74.51;95414.00;5073650;28;20174;-76
2020/12/23 10:43:23;;;;;;;3.80;2.37;;;;;;;11.70;74.61;95410.84;5055801;28;20217;-76
2020/12/23 10:45:48;;;;;;;7.87;4.70;;;;;;;11.73;73.66;95403.50;5055656;28;20225;-76
2020/12/23 10:48:13;;;;;;;3.13;1.90;;;;;;;11.82;74.13;95414.78;5032237;28;20251;-76
2020/12/23 10:50:39;;;;;;;4.17;2.13;;;;;;;11.75;73.31;95399.00;5055151;28;20181;-76
2020/12/23 10:53:04;;;;;;;3.70;2.10;;;;;;;11.63;73.43;95382.84;5055551;28;20173;-76
2020/12/23 10:55:29;;;;;;;3.53;2.10;;;;;;;11.64;74.24;95376.66;5055267;28;20209;-76
2020/12/23 10:57:55;;;;;;;4.40;2.87;;;;;;;11.56;74.68;95374.03;5053135;28;20189;-75
2020/12/23 11:00:20;;;;;;;2.07;1.60;;;;;;;11.53;75.28;95387.34;5054822;28;20570;-76
2020/12/23 11:02:45;;;;;;;3.73;2.87;;;;;;;11.40;76.47;95378.38;5073140;28;20216;-76
2020/12/23 11:05:11;;;;;;;7.93;4.80;;;;;;;11.44;76.94;95384.88;5054986;28;20762;-76
2020/12/23 11:07:36;;;;;;;3.63;2.53;;;;;;;11.37;77.49;95378.69;5052544;28;20188;-76
2020/12/23 11:10:01;;;;;;;3.50;1.80;;;;;;;11.42;77.32;95372.06;5051033;28;20213;-77
2020/12/23 11:12:26;;;;;;;8.97;5.97;;;;;;;11.31;77.27;95367.94;5055321;28;20335;-77
2020/12/23 11:14:52;;;;;;;3.13;2.60;;;;;;;11.24;78.09;95353.94;5038090;28;20197;-77
2020/12/23 11:17:17;;;;;;;3.07;2.77;;;;;;;11.20;78.33;95354.41;5055440;28;20189;-78
2020/12/23 11:19:42;;;;;;;3.03;1.60;;;;;;;11.26;77.59;95353.78;5064011;28;20294;-76
2020/12/23 11:22:08;;;;;;;1.33;1.20;;;;;;;11.25;77.66;95355.56;5038042;28;20251;-76
2020/12/23 11:24:33;;;;;;;1.40;1.07;;;;;;;11.25;77.81;95354.75;5071512;28;20193;-76
2020/12/23 11:26:59;;;;;;;2.20;1.47;;;;;;;11.25;77.97;95350.38;5054704;28;20208;-76
2020/12/23 11:29:24;;;;;;;1.70;1.57;;;;;;;11.34;77.72;95353.81;5051333;28;20205;-76
2020/12/23 11:31:51;;;;;;;2.10;1.43;;;;;;;11.37;76.94;95350.91;5053400;28;20195;-76